createdAt,value
2023-01-15T00:00:03.610Z,7.20
2023-01-15T00:02:33.251Z,7.05
2023-01-15T00:05:03.546Z,7.21
2023-01-15T00:07:32.137Z,7.32
2023-01-15T00:10:00.093Z,7.22
2023-01-15T00:12:28.088Z,7.18
2023-01-15T00:14:58.073Z,7.07
2023-01-15T00:17:26.316Z,7.19
2023-01-15T00:19:54.181Z,7.01
2023-01-15T00:22:23.411Z,7.08
2023-01-15T00:25:08.883Z,7.29
2023-01-15T00:27:39.540Z,6.63
2023-01-15T00:30:09.571Z,6.52
2023-01-15T00:32:39.011Z,6.43
2023-01-15T00:35:08.332Z,6.44
2023-01-15T00:37:37.588Z,6.67
2023-01-15T00:40:06.189Z,6.46
2023-01-15T00:42:34.045Z,6.68
2023-01-15T00:45:09.930Z,6.52
2023-01-15T00:47:39.195Z,6.54
2023-01-15T00:50:08.959Z,6.46
2023-01-15T00:52:38.584Z,6.65
2023-01-15T00:55:08.268Z,6.64
2023-01-15T00:57:36.198Z,6.57
2023-01-15T01:00:04.700Z,6.50
2023-01-15T01:02:32.632Z,6.40
2023-01-15T01:05:01.256Z,6.52
2023-01-15T01:07:29.091Z,6.54
2023-01-15T01:09:58.332Z,6.56
2023-01-15T01:12:26.378Z,6.33
2023-01-15T01:14:54.273Z,6.53
2023-01-15T01:17:22.098Z,6.44
2023-01-15T01:19:50.072Z,6.57
2023-01-15T01:22:17.919Z,6.31
2023-01-15T01:24:45.707Z,6.29
2023-01-15T01:27:14.847Z,6.51
2023-01-15T01:29:43.351Z,6.32
2023-01-15T01:32:11.114Z,6.57
2023-01-15T01:34:38.857Z,6.53
2023-01-15T01:37:06.661Z,6.53
2023-01-15T01:39:34.405Z,6.55
2023-01-15T01:42:02.159Z,6.55
2023-01-15T01:45:06.140Z,6.46
2023-01-15T01:47:34.820Z,6.69
2023-01-15T01:50:07.561Z,6.59
2023-01-15T01:52:40.944Z,6.76
2023-01-15T01:55:10.491Z,6.53
2023-01-15T01:57:39.564Z,6.75
2023-01-15T02:00:11.706Z,6.80
2023-01-15T02:02:45.301Z,6.87
2023-01-15T02:05:18.942Z,6.64
2023-01-15T02:07:47.800Z,6.76
2023-01-15T02:10:17.223Z,6.68
2023-01-15T02:12:51.643Z,6.48
2023-01-15T02:15:29.342Z,6.52
2023-01-15T02:18:07.309Z,6.49
2023-01-15T02:20:41.306Z,6.57
2023-01-15T02:23:23.640Z,6.44
2023-01-15T02:26:27.718Z,6.48
2023-01-15T02:28:59.583Z,6.62
2023-01-15T02:31:35.137Z,6.50
2023-01-15T02:34:08.913Z,6.60
2023-01-15T02:36:40.584Z,6.40
2023-01-15T02:39:14.452Z,6.63
2023-01-15T02:41:46.435Z,6.71
2023-01-15T02:44:19.196Z,6.85
2023-01-15T02:46:49.183Z,6.81
2023-01-15T02:49:20.632Z,6.98
2023-01-15T02:51:55.165Z,7.06
2023-01-15T02:54:26.330Z,6.85
2023-01-15T02:56:55.774Z,6.86
2023-01-15T02:59:31.280Z,6.77
2023-01-15T03:02:04.232Z,6.91
2023-01-15T03:04:36.201Z,6.85
2023-01-15T03:07:10.819Z,6.74
2023-01-15T03:09:39.984Z,6.63
2023-01-15T03:12:13.925Z,6.75
2023-01-15T03:14:51.942Z,7.01
2023-01-15T03:17:23.085Z,7.09
2023-01-15T03:19:57.397Z,7.05
2023-01-15T03:22:29.939Z,6.88
2023-01-15T03:25:03.903Z,6.70
2023-01-15T03:27:35.464Z,6.93
2023-01-15T03:30:09.496Z,6.91
2023-01-15T03:32:38.485Z,6.85
2023-01-15T03:35:10.649Z,6.65
2023-01-15T03:37:44.544Z,6.90
2023-01-15T03:40:13.450Z,6.67
2023-01-15T03:43:11.176Z,6.81
2023-01-15T03:45:43.709Z,6.90
2023-01-15T03:48:19.768Z,6.91
2023-01-15T03:50:51.452Z,7.05
2023-01-15T03:53:22.514Z,6.87
2023-01-15T03:56:03.365Z,6.93
2023-01-15T03:58:42.134Z,6.87
2023-01-15T04:01:17.409Z,6.89
2023-01-15T04:03:48.547Z,7.06
2023-01-15T04:06:17.331Z,7.10
2023-01-15T04:08:48.277Z,6.87
2023-01-15T04:11:24.377Z,6.96
2023-01-15T04:13:55.408Z,7.14
2023-01-15T04:16:40.340Z,6.89
2023-01-15T04:19:08.583Z,6.91
2023-01-15T04:21:39.566Z,6.82
2023-01-15T04:24:08.103Z,6.91
2023-01-15T04:26:35.935Z,6.71
2023-01-15T04:29:03.753Z,6.73
2023-01-15T04:31:33.298Z,6.64
2023-01-15T04:34:02.570Z,6.49
2023-01-15T04:36:30.832Z,7.08
2023-01-15T04:38:59.861Z,6.70
2023-01-15T04:41:45.007Z,6.80
2023-01-15T04:44:13.024Z,6.78
2023-01-15T04:46:42.292Z,6.61
2023-01-15T04:49:14.078Z,6.85
2023-01-15T04:51:42.119Z,6.83
2023-01-15T04:54:11.793Z,6.91
2023-01-15T04:56:41.942Z,6.95
2023-01-15T04:59:10.043Z,7.02
2023-01-15T05:01:38.994Z,6.85
2023-01-15T05:04:07.254Z,6.74
2023-01-15T05:06:36.457Z,6.98
2023-01-15T05:09:05.719Z,7.02
2023-01-15T05:11:36.228Z,6.87
2023-01-15T05:14:04.074Z,6.79
2023-01-15T05:16:33.289Z,6.98
2023-01-15T05:19:04.913Z,6.93
2023-01-15T05:21:34.772Z,7.25
2023-01-15T05:24:06.441Z,6.99
2023-01-15T05:26:34.822Z,7.01
2023-01-15T05:29:03.629Z,6.78
2023-01-15T05:31:33.529Z,6.89
2023-01-15T05:34:02.132Z,7.06
2023-01-15T05:36:32.901Z,7.30
2023-01-15T05:39:02.083Z,6.98
2023-01-15T05:41:49.881Z,7.08
2023-01-15T05:44:19.557Z,7.27
2023-01-15T05:46:48.137Z,6.87
2023-01-15T05:49:18.295Z,7.22
2023-01-15T05:51:46.581Z,7.15
2023-01-15T05:54:18.845Z,7.38
2023-01-15T05:56:48.940Z,7.11
2023-01-15T05:59:18.006Z,6.97
2023-01-15T06:01:46.263Z,7.53
2023-01-15T06:04:15.193Z,7.17
2023-01-15T06:06:44.198Z,6.91
2023-01-15T06:09:12.079Z,7.10
2023-01-15T06:11:40.041Z,7.08
2023-01-15T06:14:09.712Z,7.24
2023-01-15T06:16:39.156Z,7.40
2023-01-15T06:19:08.853Z,7.58
2023-01-15T06:21:37.169Z,7.91
2023-01-15T06:24:05.446Z,7.22
2023-01-15T06:26:33.525Z,6.93
2023-01-15T06:29:01.273Z,6.96
2023-01-15T06:31:30.522Z,7.32
2023-01-15T06:33:58.359Z,7.30
2023-01-15T06:36:29.927Z,7.42
2023-01-15T06:38:57.713Z,7.74
2023-01-15T06:41:44.853Z,7.38
2023-01-15T06:44:32.133Z,7.27
2023-01-15T06:47:22.849Z,7.21
2023-01-15T06:49:52.691Z,7.37
2023-01-15T06:52:20.570Z,7.24
2023-01-15T06:54:48.303Z,7.20
2023-01-15T06:57:16.224Z,7.08
2023-01-15T06:59:43.971Z,7.36
2023-01-15T07:02:13.259Z,7.28
2023-01-15T07:04:41.056Z,7.43
2023-01-15T07:07:08.881Z,7.51
2023-01-15T07:09:36.821Z,7.37
2023-01-15T07:12:05.022Z,6.93
2023-01-15T07:14:33.170Z,7.31
2023-01-15T07:17:01.020Z,7.21
2023-01-15T07:19:30.163Z,7.01
2023-01-15T07:21:57.961Z,7.60
2023-01-15T07:24:25.758Z,7.16
2023-01-15T07:26:53.576Z,7.04
2023-01-15T07:29:21.494Z,7.32
2023-01-15T07:31:49.285Z,7.34
2023-01-15T07:34:17.266Z,6.84
2023-01-15T07:36:46.404Z,7.17
2023-01-15T07:39:14.526Z,7.35
2023-01-15T07:41:59.820Z,7.21
2023-01-15T07:44:44.945Z,7.18
2023-01-15T07:47:43.027Z,7.26
2023-01-15T07:50:13.229Z,7.03
2023-01-15T07:52:42.511Z,6.96
2023-01-15T07:55:12.644Z,6.97
2023-01-15T07:57:41.074Z,6.89
2023-01-15T08:00:11.771Z,7.27
2023-01-15T08:02:44.258Z,7.46
2023-01-15T08:05:12.510Z,7.38
2023-01-15T08:07:42.390Z,7.28
2023-01-15T08:10:12.029Z,7.53
2023-01-15T08:12:57.878Z,7.61
2023-01-15T08:15:25.945Z,8.00
2023-01-15T08:17:54.135Z,7.35
2023-01-15T08:20:23.744Z,7.81
2023-01-15T08:22:53.270Z,7.24
2023-01-15T08:25:22.892Z,7.58
2023-01-15T08:27:51.383Z,7.55
2023-01-15T08:30:21.354Z,7.72
2023-01-15T08:32:49.272Z,7.31
2023-01-15T08:35:17.372Z,7.51
2023-01-15T08:37:45.346Z,7.51
2023-01-15T08:40:14.723Z,7.54
2023-01-15T08:42:42.518Z,7.36
2023-01-15T08:45:11.410Z,7.84
2023-01-15T08:47:39.252Z,7.70
2023-01-15T08:50:08.652Z,7.74
2023-01-15T08:52:37.915Z,7.40
2023-01-15T08:55:06.307Z,7.39
2023-01-15T08:57:35.526Z,7.56
2023-01-15T09:00:03.759Z,7.52
2023-01-15T09:02:31.668Z,7.75
2023-01-15T09:04:59.502Z,7.89
2023-01-15T09:07:27.453Z,7.62
2023-01-15T09:09:55.284Z,7.81
2023-01-15T09:12:24.840Z,7.87
2023-01-15T09:14:59.355Z,7.95
2023-01-15T09:17:32.284Z,7.68
2023-01-15T09:20:00.799Z,7.71
2023-01-15T09:22:30.730Z,7.48
2023-01-15T09:24:58.676Z,7.19
2023-01-15T09:27:26.709Z,7.49
2023-01-15T09:29:56.254Z,7.27
2023-01-15T09:32:24.383Z,7.36
2023-01-15T09:34:52.173Z,7.75
2023-01-15T09:37:19.984Z,7.25
2023-01-15T09:39:47.913Z,6.88
2023-01-15T09:42:32.826Z,7.33
2023-01-15T09:45:22.515Z,7.33
2023-01-15T09:48:08.731Z,7.20
2023-01-15T09:50:57.229Z,7.67
2023-01-15T09:53:45.677Z,7.43
2023-01-15T09:56:22.409Z,7.58
2023-01-15T09:58:51.910Z,7.34
2023-01-15T10:01:27.064Z,8.01
2023-01-15T10:04:00.824Z,7.83
2023-01-15T10:06:31.621Z,7.64
2023-01-15T10:09:05.632Z,7.63
2023-01-15T10:11:56.781Z,7.19
2023-01-15T10:14:39.349Z,7.28
2023-01-15T10:17:23.786Z,7.22
2023-01-15T10:19:52.367Z,7.51
2023-01-15T10:22:45.193Z,7.28
2023-01-15T10:25:17.687Z,7.65
2023-01-15T10:27:51.686Z,7.50
2023-01-15T10:30:29.142Z,7.46
2023-01-15T10:33:03.713Z,7.33
2023-01-15T10:35:43.203Z,7.68
2023-01-15T10:38:20.283Z,7.47
2023-01-15T10:41:03.582Z,7.90
2023-01-15T10:43:44.424Z,7.48
2023-01-15T10:46:15.512Z,7.70
2023-01-15T10:48:47.895Z,7.92
2023-01-15T10:51:18.770Z,8.12
2023-01-15T10:53:50.480Z,8.34
2023-01-15T10:56:27.249Z,8.38
2023-01-15T10:59:02.382Z,9.65
2023-01-15T11:01:30.679Z,8.62
2023-01-15T11:03:59.859Z,10.23
2023-01-15T11:06:31.692Z,10.43
2023-01-15T11:09:10.277Z,11.35
2023-01-15T11:12:02.158Z,11.28
2023-01-15T11:14:55.198Z,10.47
2023-01-15T11:17:41.482Z,9.87
2023-01-15T11:20:28.636Z,9.77
2023-01-15T11:22:57.229Z,8.83
2023-01-15T11:25:32.374Z,10.17
2023-01-15T11:28:03.255Z,11.10
2023-01-15T11:30:33.083Z,10.60
2023-01-15T11:33:04.091Z,9.28
2023-01-15T11:35:34.224Z,9.13
2023-01-15T11:38:13.821Z,8.50
2023-01-15T11:40:53.655Z,8.45
2023-01-15T11:43:40.553Z,8.16
2023-01-15T11:46:41.822Z,7.92
2023-01-15T11:49:28.616Z,7.92
2023-01-15T11:51:59.330Z,8.22
2023-01-15T11:54:27.923Z,8.11
2023-01-15T11:56:56.662Z,7.96
2023-01-15T11:59:24.649Z,8.04
2023-01-15T12:01:59.268Z,8.58
2023-01-15T12:04:33.307Z,8.49
2023-01-15T12:07:04.356Z,8.28
2023-01-15T12:09:44.045Z,8.05
2023-01-15T12:12:21.656Z,8.05
2023-01-15T12:15:13.570Z,7.88
2023-01-15T12:17:56.082Z,8.25
2023-01-15T12:20:27.883Z,8.01
2023-01-15T12:23:15.138Z,7.87
2023-01-15T12:25:53.167Z,7.72
2023-01-15T12:28:28.105Z,7.66
2023-01-15T12:31:01.088Z,7.76
2023-01-15T12:33:42.686Z,8.21
2023-01-15T12:36:17.601Z,8.47
2023-01-15T12:38:51.846Z,8.23
2023-01-15T12:41:25.454Z,8.47
2023-01-15T12:44:14.775Z,8.23
2023-01-15T12:46:45.149Z,7.61
2023-01-15T12:49:36.623Z,8.03
2023-01-15T12:52:08.355Z,8.07
2023-01-15T12:54:42.581Z,7.92
2023-01-15T12:57:17.539Z,7.88
2023-01-15T12:59:51.882Z,8.12
2023-01-15T13:02:25.126Z,8.07
2023-01-15T13:04:57.274Z,9.04
2023-01-15T13:07:34.756Z,9.17
2023-01-15T13:10:09.132Z,9.82
2023-01-15T13:12:37.089Z,9.14
2023-01-15T13:15:06.248Z,9.35
2023-01-15T13:17:46.068Z,9.40
2023-01-15T13:20:28.871Z,9.06
2023-01-15T13:23:08.749Z,10.12
2023-01-15T13:26:01.991Z,10.58
2023-01-15T13:28:40.264Z,11.57
2023-01-15T13:31:18.007Z,10.12
2023-01-15T13:33:50.192Z,8.69
2023-01-15T13:36:23.554Z,8.33
2023-01-15T13:38:54.627Z,8.45
2023-01-15T13:41:41.606Z,8.50
2023-01-15T13:44:18.734Z,8.02
2023-01-15T13:46:48.331Z,8.16
2023-01-15T13:49:21.587Z,8.12
2023-01-15T13:51:50.331Z,7.80
2023-01-15T13:54:20.847Z,7.86
2023-01-15T13:56:49.982Z,7.54
2023-01-15T13:59:51.443Z,7.74
2023-01-15T14:02:26.894Z,8.05
2023-01-15T14:04:55.480Z,8.05
2023-01-15T14:07:33.521Z,7.68
2023-01-15T14:10:25.761Z,7.71
2023-01-15T14:13:10.350Z,7.71
2023-01-15T14:15:51.854Z,7.60
2023-01-15T14:18:41.906Z,7.81
2023-01-15T14:21:23.801Z,7.76
2023-01-15T14:24:06.129Z,7.83
2023-01-15T14:26:48.736Z,7.89
2023-01-15T14:29:50.840Z,7.74
2023-01-15T14:32:30.823Z,7.70
2023-01-15T14:35:02.049Z,7.93
2023-01-15T14:37:33.493Z,8.09
2023-01-15T14:40:03.754Z,8.28
2023-01-15T14:42:53.235Z,7.85
2023-01-15T14:45:27.820Z,9.18
2023-01-15T14:47:57.514Z,8.38
2023-01-15T14:50:33.529Z,7.82
2023-01-15T14:53:06.635Z,7.76
2023-01-15T14:55:35.159Z,7.74
2023-01-15T14:58:08.513Z,8.06
2023-01-15T15:00:41.128Z,7.22
2023-01-15T15:03:17.589Z,6.93
2023-01-15T15:05:47.617Z,7.91
2023-01-15T15:08:17.896Z,7.39
2023-01-15T15:10:47.980Z,7.60
2023-01-15T15:13:20.513Z,7.62
2023-01-15T15:15:55.382Z,7.95
2023-01-15T15:18:32.305Z,7.87
2023-01-15T15:21:06.560Z,7.31
2023-01-15T15:23:40.928Z,7.50
2023-01-15T15:26:21.689Z,7.70
2023-01-15T15:29:00.300Z,7.52
2023-01-15T15:31:36.899Z,7.57
2023-01-15T15:34:06.894Z,7.65
2023-01-15T15:36:39.340Z,7.52
2023-01-15T15:39:18.295Z,7.60
2023-01-15T15:42:06.821Z,7.12
2023-01-15T15:44:55.732Z,7.49
2023-01-15T15:47:44.294Z,7.53
2023-01-15T15:50:23.200Z,7.52
2023-01-15T15:52:51.505Z,7.57
2023-01-15T15:55:21.046Z,7.50
2023-01-15T15:57:52.505Z,7.56
2023-01-15T16:00:26.763Z,7.45
2023-01-15T16:02:56.403Z,7.32
2023-01-15T16:05:26.583Z,7.27
2023-01-15T16:07:55.794Z,7.39
2023-01-15T16:10:32.993Z,7.58
2023-01-15T16:13:04.774Z,7.52
2023-01-15T16:15:35.167Z,8.63
2023-01-15T16:18:06.921Z,7.76
2023-01-15T16:20:35.046Z,7.20
2023-01-15T16:23:05.223Z,7.47
2023-01-15T16:25:35.506Z,7.36
2023-01-15T16:28:03.756Z,7.74
2023-01-15T16:30:33.171Z,7.43
2023-01-15T16:33:04.209Z,7.50
2023-01-15T16:35:36.933Z,7.69
2023-01-15T16:38:07.235Z,7.68
2023-01-15T16:40:38.216Z,7.60
2023-01-15T16:43:09.392Z,7.66
2023-01-15T16:45:42.151Z,7.52
2023-01-15T16:48:27.450Z,7.29
2023-01-15T16:50:58.178Z,7.48
2023-01-15T16:53:38.230Z,7.52
2023-01-15T16:56:07.089Z,7.97
2023-01-15T16:58:38.439Z,7.73
2023-01-15T17:01:33.149Z,7.57
2023-01-15T17:04:01.532Z,7.56
2023-01-15T17:06:30.859Z,7.75
2023-01-15T17:08:59.222Z,7.55
2023-01-15T17:11:29.886Z,7.40
2023-01-15T17:14:10.068Z,7.25
2023-01-15T17:16:38.010Z,7.50
2023-01-15T17:19:07.762Z,7.34
2023-01-15T17:21:38.822Z,7.25
2023-01-15T17:24:08.071Z,7.56
2023-01-15T17:26:36.480Z,7.49
2023-01-15T17:29:04.310Z,7.25
2023-01-15T17:31:33.784Z,7.62
2023-01-15T17:34:03.092Z,7.29
2023-01-15T17:36:32.768Z,7.68
2023-01-15T17:39:01.895Z,8.33
2023-01-15T17:41:29.767Z,8.23
2023-01-15T17:43:57.485Z,7.42
2023-01-15T17:46:25.361Z,7.47
2023-01-15T17:48:53.135Z,8.27
2023-01-15T17:51:20.961Z,8.02
2023-01-15T17:53:48.728Z,8.27
2023-01-15T17:56:35.447Z,7.49
2023-01-15T17:59:29.255Z,7.54
2023-01-15T18:02:14.750Z,7.79
2023-01-15T18:05:05.457Z,7.74
2023-01-15T18:07:39.240Z,7.85
2023-01-15T18:10:08.585Z,7.89
2023-01-15T18:12:37.713Z,7.48
2023-01-15T18:15:06.339Z,7.50
2023-01-15T18:17:34.127Z,7.45
2023-01-15T18:20:01.809Z,7.84
2023-01-15T18:22:30.697Z,7.22
2023-01-15T18:24:58.394Z,7.08
2023-01-15T18:27:29.972Z,7.43
2023-01-15T18:29:59.839Z,7.41
2023-01-15T18:32:30.387Z,7.43
2023-01-15T18:34:58.277Z,7.23
2023-01-15T18:37:26.013Z,7.84
2023-01-15T18:39:53.761Z,7.68
2023-01-15T18:42:38.924Z,7.90
2023-01-15T18:45:27.193Z,7.38
2023-01-15T18:47:55.047Z,7.99
2023-01-15T18:50:22.893Z,7.71
2023-01-15T18:52:51.134Z,8.21
2023-01-15T18:55:19.995Z,7.66
2023-01-15T18:57:47.743Z,7.42
2023-01-15T19:00:17.994Z,7.51
2023-01-15T19:02:46.225Z,7.50
2023-01-15T19:05:15.347Z,7.29
2023-01-15T19:07:43.708Z,7.58
2023-01-15T19:10:13.034Z,7.87
2023-01-15T19:12:41.094Z,7.88
2023-01-15T19:15:27.160Z,7.55
2023-01-15T19:18:13.518Z,7.49
2023-01-15T19:20:41.446Z,7.37
2023-01-15T19:23:09.357Z,7.34
2023-01-15T19:25:39.705Z,7.23
2023-01-15T19:28:09.177Z,7.52
2023-01-15T19:30:39.629Z,7.50
2023-01-15T19:33:09.889Z,7.24
2023-01-15T19:35:39.901Z,8.39
2023-01-15T19:38:10.470Z,8.44
2023-01-15T19:40:40.621Z,8.53
2023-01-15T19:43:28.058Z,8.83
2023-01-15T19:46:09.810Z,7.79
2023-01-15T19:48:56.228Z,7.80
2023-01-15T19:51:44.079Z,7.68
2023-01-15T19:54:11.831Z,7.27
2023-01-15T19:56:40.176Z,7.17
2023-01-15T19:59:08.661Z,7.29
2023-01-15T20:01:37.075Z,7.25
2023-01-15T20:04:06.471Z,7.18
2023-01-15T20:06:34.272Z,7.41
2023-01-15T20:09:02.106Z,7.15
2023-01-15T20:11:50.010Z,7.37
2023-01-15T20:14:16.782Z,7.15
2023-01-15T20:16:44.545Z,7.12
2023-01-15T20:19:13.728Z,7.26
2023-01-15T20:21:41.476Z,7.31
2023-01-15T20:24:09.417Z,7.12
2023-01-15T20:26:37.156Z,7.44
2023-01-15T20:29:04.940Z,7.21
2023-01-15T20:31:33.960Z,7.22
2023-01-15T20:34:02.157Z,7.12
2023-01-15T20:36:34.595Z,7.35
2023-01-15T20:39:02.726Z,7.27
2023-01-15T20:41:48.174Z,7.19
2023-01-15T20:44:33.445Z,7.08
2023-01-15T20:47:21.148Z,7.65
2023-01-15T20:49:47.988Z,7.32
2023-01-15T20:52:17.040Z,7.31
2023-01-15T20:54:44.797Z,7.41
2023-01-15T20:57:12.648Z,7.37
2023-01-15T20:59:40.383Z,7.13
2023-01-15T21:02:08.240Z,7.22
2023-01-15T21:04:36.041Z,7.07
2023-01-15T21:07:03.905Z,6.90
2023-01-15T21:09:33.061Z,7.05
2023-01-15T21:12:00.838Z,6.76
2023-01-15T21:14:28.824Z,6.91
2023-01-15T21:16:56.660Z,7.32
2023-01-15T21:19:24.751Z,7.09
2023-01-15T21:21:52.533Z,7.03
2023-01-15T21:24:20.485Z,6.94
2023-01-15T21:26:49.775Z,6.69
2023-01-15T21:29:17.738Z,6.99
2023-01-15T21:31:45.779Z,6.99
2023-01-15T21:34:14.001Z,7.10
2023-01-15T21:36:41.777Z,7.22
2023-01-15T21:39:12.344Z,6.87
2023-01-15T21:41:57.488Z,7.12
2023-01-15T21:44:34.890Z,6.94
2023-01-15T21:47:05.619Z,6.82
2023-01-15T21:49:34.491Z,6.85
2023-01-15T21:52:03.489Z,6.88
2023-01-15T21:54:32.241Z,6.80
2023-01-15T21:57:00.566Z,7.02
2023-01-15T21:59:29.844Z,6.95
2023-01-15T22:01:59.270Z,7.05
2023-01-15T22:04:29.102Z,6.95
2023-01-15T22:06:57.737Z,6.86
2023-01-15T22:09:25.838Z,6.70
2023-01-15T22:11:54.825Z,6.89
2023-01-15T22:14:26.488Z,6.80
2023-01-15T22:16:57.249Z,6.77
2023-01-15T22:19:27.416Z,6.80
2023-01-15T22:21:57.084Z,6.82
2023-01-15T22:24:27.347Z,6.24
2023-01-15T22:26:55.342Z,6.44
2023-01-15T22:29:24.278Z,6.05
2023-01-15T22:31:52.663Z,6.30
2023-01-15T22:34:22.864Z,6.45
2023-01-15T22:36:51.511Z,6.44
2023-01-15T22:39:20.184Z,6.01
2023-01-15T22:42:06.180Z,6.97
2023-01-15T22:44:34.997Z,5.95
2023-01-15T22:47:03.355Z,5.64
2023-01-15T22:49:32.719Z,5.61
2023-01-15T22:52:00.604Z,5.49
2023-01-15T22:54:28.402Z,6.04
2023-01-15T22:56:56.349Z,6.04
2023-01-15T22:59:24.607Z,5.79
2023-01-15T23:01:52.588Z,5.62
2023-01-15T23:04:22.362Z,6.03
2023-01-15T23:06:52.627Z,5.77
2023-01-15T23:09:22.253Z,5.74
2023-01-15T23:11:51.433Z,5.49
2023-01-15T23:14:21.348Z,5.72
2023-01-15T23:16:49.668Z,5.47
2023-01-15T23:19:18.916Z,5.67
2023-01-15T23:21:46.824Z,5.48
2023-01-15T23:24:15.976Z,5.62
2023-01-15T23:26:43.749Z,5.87
2023-01-15T23:29:11.759Z,5.89
2023-01-15T23:31:39.555Z,5.83
2023-01-15T23:34:07.305Z,5.95
2023-01-15T23:36:35.072Z,6.14
2023-01-15T23:39:02.848Z,6.33
2023-01-15T23:41:49.336Z,6.08
2023-01-15T23:44:37.087Z,6.20
2023-01-15T23:47:05.136Z,6.30
2023-01-15T23:49:32.896Z,6.26
2023-01-15T23:52:00.963Z,6.74
2023-01-15T23:54:31.279Z,6.56
2023-01-15T23:57:02.085Z,6.79
2023-01-15T23:59:30.616Z,6.41
